Time;durP1;ratioP1;P1;durP2;ratioP2;P2;SDS_P1;SDS_P2;PMS_P1;PMS_P2;Temp;Humidity;BMP_temperature;BMP_pressure;BME280_temperature;BME280_humidity;BME280_pressure;Samples;Min_cycle;Max_cycle;Signal;HPM_P1;HPM_P2
2023/12/22 00:02:09;;;;;;;35.80;17.90;;;;;;;-141.97;74.25;46016.38;4951176;28;20177;-87
2023/12/22 00:04:35;;;;;;;36.80;18.50;;;;;;;-141.97;74.40;46214.25;4950837;28;20168;-88
2023/12/22 00:07:00;;;;;;;50.23;22.43;;;;;;;-141.97;74.40;46220.03;5016556;28;20169;-88
2023/12/22 00:09:25;;;;;;;41.77;20.87;;;;;;;-141.97;74.20;46600.47;4950519;28;20255;-87
2023/12/22 00:11:51;;;;;;;41.67;21.13;;;;;;;-141.97;74.35;46177.75;5016316;28;20171;-87
2023/12/22 00:14:16;;;;;;;40.00;19.17;;;;;;;-141.97;74.23;46106.66;5015988;28;20270;-87
2023/12/22 00:16:42;;;;;;;38.87;17.90;;;;;;;-141.97;74.12;46043.28;5017397;28;20634;-87
2023/12/22 00:19:07;;;;;;;36.13;17.53;;;;;;;-141.97;74.03;46216.19;5015942;28;20268;-86
2023/12/22 00:21:32;;;;;;;35.57;16.53;;;;;;;-141.97;74.43;46546.66;4949680;29;20188;-88
2023/12/22 00:23:58;;;;;;;34.17;16.13;;;;;;;-141.97;74.05;46227.72;4949380;28;20751;-87
2023/12/22 00:26:23;;;;;;;31.87;15.90;;;;;;;-141.97;74.26;46612.00;4949836;29;20176;-88
2023/12/22 00:28:49;;;;;;;33.67;16.07;;;;;;;-141.97;74.55;45885.72;4949951;28;20168;-86
2023/12/22 00:31:14;;;;;;;32.10;15.77;;;;;;;-141.97;74.47;46099.00;4950523;28;20169;-87
2023/12/22 00:33:40;;;;;;;30.60;15.43;;;;;;;-141.97;74.29;46392.94;4949954;29;20165;-86
2023/12/22 00:36:05;;;;;;;30.70;14.97;;;;;;;-141.97;74.43;46585.09;4949917;28;20168;-87
2023/12/22 00:38:31;;;;;;;31.37;14.87;;;;;;;-141.97;74.37;46546.66;5015526;28;20594;-88
2023/12/22 00:40:56;;;;;;;28.77;14.73;;;;;;;-141.97;74.68;46189.28;5032474;28;20233;-86
2023/12/22 00:43:22;;;;;;;29.57;14.60;;;;;;;-141.97;75.00;46123.97;4949371;29;20197;-88
2023/12/22 00:45:47;;;;;;;30.10;14.80;;;;;;;-141.97;75.01;46123.97;4950147;29;20161;-85
2023/12/22 00:48:13;;;;;;;29.27;14.63;;;;;;;-141.97;75.44;46166.22;5016195;28;20625;-86
2023/12/22 00:50:38;;;;;;;32.13;16.27;;;;;;;-141.97;75.87;46235.41;4949760;29;20651;-86
2023/12/22 00:53:03;;;;;;;30.63;15.73;;;;;;;-141.97;76.05;46039.44;4964993;28;20165;-86
2023/12/22 00:55:29;;;;;;;34.13;16.77;;;;;;;-141.97;76.71;45995.25;4969740;29;20188;-86
2023/12/22 00:57:54;;;;;;;31.40;14.57;;;;;;;-141.97;76.34;46158.53;4949435;29;20513;-86
2023/12/22 01:00:20;;;;;;;26.03;14.23;;;;;;;-141.97;76.46;46500.56;4949702;29;20193;-89
2023/12/22 01:02:45;;;;;;;31.00;13.87;;;;;;;-141.97;76.54;46221.94;5015506;28;20164;-86
2023/12/22 01:05:11;;;;;;;30.03;14.97;;;;;;;-141.97;76.87;46118.19;4949505;28;20613;-86
2023/12/22 01:07:36;;;;;;;32.70;15.47;;;;;;;-141.97;76.91;46452.50;4949381;28;20235;-86
2023/12/22 01:10:03;;;;;;;30.30;15.30;;;;;;;-141.97;76.60;46223.88;4949250;29;20666;-85
2023/12/22 01:12:29;;;;;;;30.07;15.37;;;;;;;-141.97;76.59;46054.81;4949737;29;20160;-86
2023/12/22 01:14:56;;;;;;;32.13;15.67;;;;;;;-141.97;76.13;46220.03;4949560;29;20408;-86
2023/12/22 01:17:22;;;;;;;27.10;14.47;;;;;;;-141.97;76.33;46064.41;4951062;28;20169;-87
2023/12/22 01:19:47;;;;;;;29.03;14.20;;;;;;;-141.97;75.58;46650.44;5016074;28;20516;-87
2023/12/22 01:22:12;;;;;;;28.53;13.13;;;;;;;-141.97;75.51;46227.72;5015740;28;20243;-86
2023/12/22 01:24:40;;;;;;;29.23;14.23;;;;;;;-141.97;75.51;46089.38;4950019;28;20168;-87
2023/12/22 01:27:06;;;;;;;28.83;14.40;;;;;;;-141.97;75.99;46027.91;5032532;28;20683;-87
2023/12/22 01:29:32;;;;;;;30.73;15.33;;;;;;;-141.97;75.96;46540.91;4949801;28;20409;-87
2023/12/22 01:31:57;;;;;;;36.90;17.37;;;;;;;-141.97;75.82;46148.94;5015778;28;20420;-87
2023/12/22 01:34:23;;;;;;;38.70;19.40;;;;;;;-141.97;75.63;46162.38;5015867;28;20177;-88
2023/12/22 01:36:49;;;;;;;38.20;18.30;;;;;;;-141.97;75.61;46072.09;5015565;28;20189;-87
2023/12/22 01:39:15;;;;;;;41.00;20.20;;;;;;;-141.97;75.58;46220.03;4949436;29;20718;-88
2023/12/22 01:41:40;;;;;;;41.43;20.10;;;;;;;-141.97;75.13;46652.34;5015476;28;20484;-87
2023/12/22 01:44:06;;;;;;;55.47;25.63;;;;;;;-141.97;75.47;46202.72;5016259;28;20169;-87
2023/12/22 01:46:32;;;;;;;68.33;29.23;;;;;;;-141.97;75.32;46004.84;5014693;28;20169;-86
2023/12/22 01:49:00;;;;;;;79.43;33.73;;;;;;;-141.97;75.24;46431.38;5031489;28;20181;-87
2023/12/22 01:51:27;;;;;;;80.87;32.17;;;;;;;-141.97;75.23;46492.88;4948863;28;20416;-86
2023/12/22 01:53:52;;;;;;;76.53;32.47;;;;;;;-141.97;75.51;46041.34;5016011;28;20897;-87
2023/12/22 01:56:18;;;;;;;64.47;26.40;;;;;;;-141.97;76.48;45981.78;5015031;28;20538;-88
2023/12/22 01:58:44;;;;;;;55.63;24.20;;;;;;;-141.97;75.39;46583.16;5017728;28;20181;-88
2023/12/22 02:01:10;;;;;;;44.93;21.10;;;;;;;-141.97;75.61;45947.22;4949751;28;20463;-87
2023/12/22 02:03:36;;;;;;;41.40;19.60;;;;;;;-141.97;75.42;46085.53;4948781;28;20803;-87
2023/12/22 02:06:03;;;;;;;39.90;19.40;;;;;;;-141.97;75.15;46049.03;4948965;28;20298;-87
2023/12/22 02:08:32;;;;;;;51.00;23.53;;;;;;;-141.97;75.07;46416.00;5016297;28;20424;-87
2023/12/22 02:10:58;;;;;;;72.20;30.40;;;;;;;-141.97;75.02;46131.66;4952335;28;20404;-88
2023/12/22 02:13:24;;;;;;;51.37;22.93;;;;;;;-141.97;74.70;46160.47;4952233;29;20409;-87
2023/12/22 02:16:06;;;;;;;38.33;18.10;;;;;;;-141.97;74.52;46500.56;4952718;28;20209;-88
2023/12/22 02:18:38;;;;;;;31.80;16.67;;;;;;;-141.97;74.11;46636.97;4953301;28;20290;-88
2023/12/22 02:21:04;;;;;;;38.23;18.53;;;;;;;-141.97;74.43;46143.19;4953757;29;20464;-87
2023/12/22 02:23:29;;;;;;;32.30;16.47;;;;;;;-141.97;74.34;46508.22;4955560;28;20480;-87
2023/12/22 02:26:10;;;;;;;35.83;15.97;;;;;;;-141.97;74.60;46208.50;4959203;28;20226;-88
2023/12/22 02:28:38;;;;;;;33.30;17.60;;;;;;;-141.97;74.59;46072.09;5018822;28;20186;-88
2023/12/22 02:31:17;;;;;;;33.63;16.43;;;;;;;-141.97;74.95;46239.25;5020493;28;20467;-88
2023/12/22 02:33:42;;;;;;;37.20;17.57;;;;;;;-141.97;75.56;46108.59;4954786;28;20432;-88
2023/12/22 02:36:09;;;;;;;32.73;16.57;;;;;;;-141.97;75.66;46256.53;4953781;29;20424;-88
2023/12/22 02:38:36;;;;;;;38.80;18.03;;;;;;;-141.97;75.74;46460.19;4954130;28;20176;-88
2023/12/22 02:41:02;;;;;;;39.17;18.77;;;;;;;-141.97;75.62;46004.84;4954709;29;20445;-88
2023/12/22 02:43:28;;;;;;;41.93;20.10;;;;;;;-141.97;76.19;46004.84;5018498;28;20427;-87
2023/12/22 02:45:53;;;;;;;46.90;23.17;;;;;;;-141.97;76.00;45985.63;4952366;29;20177;-88
2023/12/22 02:48:19;;;;;;;45.30;23.10;;;;;;;-141.97;76.28;46504.38;4952728;29;20412;-87
2023/12/22 02:50:44;;;;;;;48.90;24.17;;;;;;;-141.97;75.71;45970.25;5020073;28;20164;-86
2023/12/22 02:53:10;;;;;;;44.37;22.03;;;;;;;-141.97;75.95;46523.59;4969447;29;20177;-84
2023/12/22 02:55:35;;;;;;;37.40;19.10;;;;;;;-141.97;75.63;46243.09;4968944;29;20181;-86
2023/12/22 02:58:01;;;;;;;38.10;18.37;;;;;;;-141.97;76.04;46037.50;4960711;28;20191;-88
2023/12/22 03:00:26;;;;;;;43.20;22.10;;;;;;;-141.97;76.50;46008.69;5019545;28;20195;-89
2023/12/22 03:02:51;;;;;;;43.00;19.70;;;;;;;-141.97;76.02;46008.69;5019498;28;20244;-88
2023/12/22 03:05:17;;;;;;;42.30;21.13;;;;;;;-141.97;76.25;46077.84;4951878;28;20274;-87
2023/12/22 03:07:42;;;;;;;34.67;17.10;;;;;;;-141.97;75.97;46200.81;4951709;29;20643;-88
2023/12/22 03:10:08;;;;;;;38.40;19.50;;;;;;;-141.97;76.73;46425.63;4952520;29;20230;-88
2023/12/22 03:12:33;;;;;;;50.20;23.40;;;;;;;-141.97;77.29;46156.63;4951789;28;20724;-88
2023/12/22 03:14:58;;;;;;;71.53;29.53;;;;;;;-141.97;77.53;46112.44;5018564;28;20165;-88
2023/12/22 03:17:24;;;;;;;97.07;37.83;;;;;;;-141.97;77.06;46093.22;4953981;28;20645;-86
2023/12/22 03:19:49;;;;;;;92.83;36.90;;;;;;;-141.97;76.84;46187.38;5019752;28;20210;-88
2023/12/22 03:22:15;;;;;;;79.50;32.27;;;;;;;-141.97;77.06;46535.13;4950933;28;20189;-88
2023/12/22 03:24:40;;;;;;;73.07;30.03;;;;;;;-141.97;76.52;46187.38;4951564;29;20173;-89
2023/12/22 03:27:06;;;;;;;65.93;29.20;;;;;;;-141.97;76.16;46231.56;4951519;28;20176;-88
2023/12/22 03:29:31;;;;;;;153.00;51.73;;;;;;;-141.97;76.11;46604.31;4951169;29;20248;-87
2023/12/22 03:31:56;;;;;;;133.73;47.60;;;;;;;-141.97;76.44;46108.59;4951460;29;20248;-89
2023/12/22 03:34:22;;;;;;;70.20;30.33;;;;;;;-141.97;76.69;46035.59;5018871;28;20265;-88
2023/12/22 03:36:48;;;;;;;55.13;24.07;;;;;;;-141.97;77.22;46500.56;5018279;28;20187;-87
2023/12/22 03:39:15;;;;;;;46.70;20.77;;;;;;;-141.97;77.35;46202.72;4951939;29;20160;-86
2023/12/22 03:41:40;;;;;;;40.10;18.33;;;;;;;-141.97;77.34;46162.38;5034014;28;20452;-88
2023/12/22 03:44:06;;;;;;;43.60;19.33;;;;;;;-141.97;77.21;46529.38;4951240;29;20901;-88
2023/12/22 03:46:32;;;;;;;35.93;17.20;;;;;;;-141.97;77.03;46206.56;4950732;29;20188;-87
2023/12/22 03:48:57;;;;;;;38.20;17.60;;;;;;;-141.97;77.96;46243.09;4951353;28;20432;-88
2023/12/22 03:51:23;;;;;;;38.43;18.07;;;;;;;-141.97;77.62;46350.69;5021297;28;20177;-88
2023/12/22 03:53:48;;;;;;;36.50;17.57;;;;;;;-141.97;77.10;46058.63;4953515;28;20188;-88
2023/12/22 03:56:14;;;;;;;35.77;17.03;;;;;;;-141.97;77.03;46579.31;5018572;28;20177;-90
2023/12/22 03:58:39;;;;;;;74.27;33.03;;;;;;;-141.97;76.63;46116.28;4951119;28;20169;-89
2023/12/22 04:01:07;;;;;;;70.27;31.00;;;;;;;-141.97;75.92;46074.00;5016919;28;20615;-90
2023/12/22 04:03:33;;;;;;;72.20;31.23;;;;;;;-141.97;75.76;46381.41;5016687;28;20322;-90
2023/12/22 04:06:01;;;;;;;60.87;28.40;;;;;;;-141.97;75.80;46164.31;5017440;28;20504;-90
2023/12/22 04:08:27;;;;;;;56.70;25.87;;;;;;;-141.97;75.76;46440.97;4965468;28;20153;-87
2023/12/22 04:10:52;;;;;;;45.97;20.87;;;;;;;-141.97;75.39;46604.31;5039999;28;20440;-87
2023/12/22 04:13:18;;;;;;;45.80;22.03;;;;;;;-141.97;75.47;46588.94;4965533;29;20173;-89
2023/12/22 04:15:44;;;;;;;49.47;21.90;;;;;;;-141.97;74.60;46175.84;4969402;29;20203;-88
2023/12/22 04:18:09;;;;;;;57.53;25.03;;;;;;;-141.97;74.79;46099.00;5038433;28;20153;-88
2023/12/22 04:20:35;;;;;;;43.63;21.43;;;;;;;-141.97;74.61;46546.66;5036114;28;20459;-88
2023/12/22 04:23:00;;;;;;;73.00;30.97;;;;;;;-141.97;74.60;46166.22;4958774;28;20731;-90
2023/12/22 04:25:26;;;;;;;99.47;39.50;;;;;;;-141.97;74.95;46202.72;4952702;28;20574;-88
2023/12/22 04:27:52;;;;;;;107.87;42.20;;;;;;;-141.97;75.21;46204.66;5017500;28;20581;-88
2023/12/22 04:30:17;;;;;;;65.20;31.43;;;;;;;-141.97;74.36;46204.66;5033714;28;20599;-88
2023/12/22 04:32:43;;;;;;;83.23;38.47;;;;;;;-141.97;74.57;46123.97;4950534;28;20405;-89
2023/12/22 04:35:08;;;;;;;87.57;37.83;;;;;;;-141.97;74.47;46421.78;5028401;28;20196;-87
2023/12/22 04:37:34;;;;;;;68.90;32.93;;;;;;;-141.97;75.11;46519.75;5054035;28;20189;-89
2023/12/22 04:39:59;;;;;;;68.83;29.80;;;;;;;-141.97;74.31;46358.38;5017339;28;20242;-88
2023/12/22 04:42:25;;;;;;;50.53;24.60;;;;;;;-141.97;74.52;46008.69;4950408;29;20526;-88
2023/12/22 04:44:51;;;;;;;45.93;24.57;;;;;;;-141.97;74.45;46037.50;4950246;29;20177;-88
2023/12/22 04:47:16;;;;;;;54.50;25.33;;;;;;;-141.97;75.09;45974.09;5016193;28;20318;-87
2023/12/22 04:49:42;;;;;;;41.80;20.40;;;;;;;-141.97;74.95;46216.19;4949931;29;20948;-87
2023/12/22 04:52:07;;;;;;;41.40;18.73;;;;;;;-141.97;75.69;46206.56;4949765;28;20169;-87
2023/12/22 04:54:33;;;;;;;36.40;19.20;;;;;;;-141.97;75.95;46400.63;4949315;29;20169;-83
2023/12/22 04:56:58;;;;;;;64.17;29.27;;;;;;;-141.97;76.35;46354.53;5032250;28;20181;-89
2023/12/22 04:59:23;;;;;;;49.10;22.57;;;;;;;-141.97;76.73;46022.13;4949448;29;20629;-90
2023/12/22 05:01:49;;;;;;;41.97;19.67;;;;;;;-141.97;77.13;46097.06;4950035;28;20729;-89
2023/12/22 05:04:14;;;;;;;37.63;18.30;;;;;;;-141.97;77.41;46396.78;4950601;29;20167;-89
2023/12/22 05:06:40;;;;;;;30.63;15.17;;;;;;;-141.97;77.99;46104.75;5016269;28;20257;-88
2023/12/22 05:09:05;;;;;;;36.60;17.33;;;;;;;-141.97;79.12;46139.34;5016487;28;20252;-89
2023/12/22 05:11:30;;;;;;;41.07;19.80;;;;;;;-141.97;80.35;46139.34;5005261;28;20276;-88
2023/12/22 05:13:56;;;;;;;34.63;16.43;;;;;;;-141.97;81.00;46577.41;4948720;28;20550;-89
2023/12/22 05:16:21;;;;;;;36.70;17.70;;;;;;;-141.97;80.63;46204.66;4965340;28;20177;-87
2023/12/22 05:18:47;;;;;;;31.97;17.60;;;;;;;-141.97;80.83;46577.41;5048661;28;20198;-86
2023/12/22 05:21:14;;;;;;;31.80;16.50;;;;;;;-141.97;80.33;46548.59;5036977;28;20250;-84
2023/12/22 05:23:39;;;;;;;33.83;16.47;;;;;;;-141.97;80.04;46631.22;4965534;28;20643;-86
2023/12/22 05:26:08;;;;;;;35.57;17.30;;;;;;;-141.97;79.29;46206.56;4951498;28;20470;-86
2023/12/22 05:28:33;;;;;;;40.50;19.03;;;;;;;-141.97;78.50;46216.19;4969711;28;20518;-85
2023/12/22 05:30:59;;;;;;;34.97;17.90;;;;;;;-141.97;78.04;46540.91;4968577;28;20525;-86
2023/12/22 05:33:24;;;;;;;38.73;18.97;;;;;;;-141.97;77.71;46185.44;5032162;28;20283;-86
2023/12/22 05:35:50;;;;;;;38.30;18.47;;;;;;;-141.97;77.17;46243.09;4950271;29;20569;-87
2023/12/22 05:38:15;;;;;;;37.17;18.50;;;;;;;-141.97;77.08;46444.81;5051147;28;20176;-86
2023/12/22 05:40:41;;;;;;;37.27;18.33;;;;;;;-141.97;76.77;46014.44;4970955;28;20203;-86
2023/12/22 05:43:06;;;;;;;49.53;20.87;;;;;;;-141.97;76.86;46152.78;5037529;28;20180;-86
2023/12/22 05:45:32;;;;;;;40.03;19.50;;;;;;;-141.97;76.62;46467.88;5018153;28;20187;-86
2023/12/22 05:47:58;;;;;;;42.87;20.80;;;;;;;-141.97;76.53;45987.56;5050542;28;20184;-87
2023/12/22 05:50:23;;;;;;;41.47;21.20;;;;;;;-141.97;76.23;46193.13;5040784;28;20175;-86
2023/12/22 05:52:49;;;;;;;49.00;23.40;;;;;;;-141.97;75.88;46147.03;5039498;28;20317;-86
2023/12/22 05:55:14;;;;;;;47.53;23.53;;;;;;;-141.97;75.20;46139.34;5024844;28;20222;-87
2023/12/22 05:57:40;;;;;;;50.90;22.80;;;;;;;-141.97;75.14;46535.13;4964792;28;20267;-85
2023/12/22 06:00:07;;;;;;;55.20;24.23;;;;;;;-141.97;74.98;46538.97;5056825;28;20613;-85
2023/12/22 06:02:33;;;;;;;51.77;22.43;;;;;;;-141.97;74.68;46512.06;5039628;28;20188;-87
2023/12/22 06:04:59;;;;;;;45.70;21.50;;;;;;;-141.97;74.29;46481.34;5026345;28;20536;-87
2023/12/22 06:07:25;;;;;;;45.40;21.90;;;;;;;-141.97;73.78;46450.59;5044295;28;20420;-86
2023/12/22 06:09:50;;;;;;;45.57;20.57;;;;;;;-141.97;73.56;45935.69;4971753;28;20593;-84
2023/12/22 06:12:15;;;;;;;52.77;25.73;;;;;;;-141.97;73.35;45910.72;4975705;28;20269;-87
2023/12/22 06:14:41;;;;;;;46.90;24.07;;;;;;;-141.97;73.59;46150.84;5047203;28;20188;-87
2023/12/22 06:17:06;;;;;;;50.30;24.27;;;;;;;-141.97;73.62;46221.94;4959872;28;20636;-87
2023/12/22 06:19:32;;;;;;;54.40;26.93;;;;;;;-141.97;73.28;46429.47;5039882;28;20176;-87
2023/12/22 06:21:57;;;;;;;124.23;56.27;;;;;;;-141.97;73.33;45966.44;5038982;28;20647;-88
2023/12/22 06:24:26;;;;;;;170.13;80.13;;;;;;;-141.97;72.41;46118.19;4967490;28;20247;-89
2023/12/22 06:26:51;;;;;;;63.87;32.43;;;;;;;-141.97;72.67;45937.59;4956636;28;20188;-87
2023/12/22 06:29:17;;;;;;;41.00;20.50;;;;;;;-141.97;72.24;46208.50;4971533;28;20416;-89
2023/12/22 06:31:42;;;;;;;44.07;21.57;;;;;;;-141.97;72.75;46208.50;4976138;28;20184;-88
2023/12/22 06:34:08;;;;;;;39.50;21.57;;;;;;;-141.97;73.65;46210.41;5049972;28;20173;-87
2023/12/22 06:36:33;;;;;;;45.53;23.83;;;;;;;-141.97;72.50;46074.00;5017716;28;20188;-89
2023/12/22 06:38:59;;;;;;;61.20;30.93;;;;;;;-141.97;71.83;46204.66;5037888;28;20714;-88
2023/12/22 06:41:31;;;;;;;76.77;36.57;;;;;;;-141.97;71.96;46185.44;4972047;28;20633;-87
2023/12/22 06:43:57;;;;;;;66.93;30.83;;;;;;;-141.97;72.46;46496.72;4979854;28;20188;-87
2023/12/22 06:46:27;;;;;;;71.67;33.03;;;;;;;-141.97;73.22;46150.84;4954607;28;20529;-87
2023/12/22 06:48:56;;;;;;;131.67;61.80;;;;;;;-141.97;73.16;46202.72;5037504;28;20949;-85
2023/12/22 06:51:24;;;;;;;183.77;86.67;;;;;;;-141.97;73.16;46196.97;4971788;28;20400;-85
2023/12/22 06:53:50;;;;;;;167.73;79.83;;;;;;;-141.97;73.30;46193.13;4971671;28;20458;-85
2023/12/22 06:56:23;;;;;;;162.30;77.23;;;;;;;-141.97;73.50;46120.13;5020896;28;20860;-85
2023/12/22 06:58:50;;;;;;;132.03;62.13;;;;;;;-141.97;73.50;46145.09;5034764;28;20420;-86
2023/12/22 07:01:34;;;;;;;117.10;53.07;;;;;;;-141.97;73.25;46440.97;4970428;28;20490;-85
2023/12/22 07:04:02;;;;;;;123.43;55.90;;;;;;;-141.97;73.01;46421.78;4971040;28;20429;-86
2023/12/22 07:06:33;;;;;;;179.07;85.20;;;;;;;-141.97;72.87;46191.22;4955546;28;20897;-85
2023/12/22 07:09:17;;;;;;;187.63;84.47;;;;;;;-141.97;74.44;46198.91;4970955;28;20415;-87
2023/12/22 07:11:50;;;;;;;186.13;85.13;;;;;;;-141.97;74.52;46196.97;4970339;28;20485;-86
2023/12/22 07:14:16;;;;;;;210.53;100.80;;;;;;;-141.97;73.71;46550.50;4970323;28;20404;-85
2023/12/22 07:16:42;;;;;;;216.20;103.27;;;;;;;-141.97;73.42;46200.81;5020305;28;20434;-86
2023/12/22 07:19:08;;;;;;;207.47;96.60;;;;;;;-141.97;73.13;46394.88;4970014;28;20187;-85
2023/12/22 07:21:33;;;;;;;256.27;108.43;;;;;;;-141.97;74.59;46081.69;4970121;28;20638;-84
2023/12/22 07:23:59;;;;;;;265.97;90.73;;;;;;;-141.97;74.94;46521.69;4970517;28;20474;-85
2023/12/22 07:26:26;;;;;;;157.77;64.87;;;;;;;-141.97;76.25;46058.63;5039897;28;20181;-86
2023/12/22 07:28:54;;;;;;;66.13;31.17;;;;;;;-141.97;77.53;46077.84;5032856;28;20236;-85
2023/12/22 07:31:20;;;;;;;84.40;42.60;;;;;;;-141.97;77.64;46508.22;5036610;28;20419;-85
2023/12/22 07:33:46;;;;;;;53.07;28.13;;;;;;;-141.97;77.51;46058.63;5036099;28;20442;-85
2023/12/22 07:36:11;;;;;;;59.07;29.40;;;;;;;-141.97;77.30;46200.81;5026080;28;20177;-85
2023/12/22 07:38:39;;;;;;;46.70;22.93;;;;;;;-141.97;78.40;46471.72;4964206;28;20618;-85
2023/12/22 07:41:05;;;;;;;50.80;25.53;;;;;;;-141.97;80.62;45947.22;4969576;28;20192;-85
2023/12/22 07:43:30;;;;;;;61.70;29.73;;;;;;;-141.97;80.85;46097.06;5036239;28;20734;-81
2023/12/22 07:45:56;;;;;;;86.07;40.73;;;;;;;-141.97;80.85;45893.41;5014299;28;20237;-83
2023/12/22 07:48:21;;;;;;;60.13;32.07;;;;;;;-141.97;80.30;46185.44;5015774;28;20288;-85
2023/12/22 07:50:47;;;;;;;53.03;26.33;;;;;;;-141.97;80.18;46367.97;5033300;28;20231;-86
2023/12/22 07:53:12;;;;;;;42.73;21.53;;;;;;;-141.97;80.25;46504.38;5049988;28;20621;-86
2023/12/22 07:55:38;;;;;;;41.67;20.10;;;;;;;-141.97;79.26;46487.09;5055128;28;20193;-85
2023/12/22 07:58:07;;;;;;;50.17;22.37;;;;;;;-141.97;77.86;46200.81;5051172;28;20169;-86
2023/12/22 08:00:33;;;;;;;43.70;21.87;;;;;;;-141.97;77.63;46638.91;5056226;28;20193;-86
2023/12/22 08:02:58;;;;;;;43.33;19.93;;;;;;;-141.97;77.09;46269.97;5034708;28;20431;-86
2023/12/22 08:05:24;;;;;;;40.30;20.63;;;;;;;-141.97;76.89;45981.78;5051734;28;20192;-85
2023/12/22 08:08:05;;;;;;;58.47;28.70;;;;;;;-141.97;76.40;46091.31;5130201;27;20363;-85
2023/12/22 08:10:31;;;;;;;39.67;18.20;;;;;;;-141.97;75.91;46001.00;5129238;28;20943;-86
2023/12/22 08:12:56;;;;;;;48.70;23.30;;;;;;;-141.97;75.53;46473.66;5110543;28;20267;-85
2023/12/22 08:15:22;;;;;;;42.53;20.20;;;;;;;-141.97;74.96;46604.31;5138903;28;20161;-84
2023/12/22 08:17:51;;;;;;;129.27;46.17;;;;;;;-141.97;74.89;46173.91;5150778;28;20197;-84
2023/12/22 08:20:20;;;;;;;40.70;19.70;;;;;;;-141.97;73.62;46039.44;5113471;28;20179;-86
2023/12/22 08:22:50;;;;;;;36.43;18.83;;;;;;;-141.97;74.19;46275.75;5133178;28;20416;-85
2023/12/22 08:25:16;;;;;;;38.17;18.40;;;;;;;-141.97;72.78;46638.91;5130838;28;20409;-85
2023/12/22 08:27:42;;;;;;;41.30;18.73;;;;;;;-141.97;72.82;46173.91;5129038;28;20490;-85
2023/12/22 08:30:09;;;;;;;37.97;19.43;;;;;;;-141.97;73.35;46195.06;5110787;28;20413;-85
2023/12/22 08:32:34;;;;;;;41.40;19.83;;;;;;;-141.97;73.88;45974.09;5115107;28;20259;-84
2023/12/22 08:35:00;;;;;;;52.93;22.80;;;;;;;-141.97;73.31;46108.59;5134001;28;20440;-85
2023/12/22 08:37:25;;;;;;;53.43;24.97;;;;;;;-141.97;72.98;46173.91;5133446;28;20206;-84
2023/12/22 08:39:51;;;;;;;60.07;31.60;;;;;;;-141.97;72.34;46367.97;5151008;28;20170;-85
2023/12/22 08:42:17;;;;;;;43.03;20.93;;;;;;;-141.97;71.47;46037.50;5150534;28;20159;-86
2023/12/22 08:44:42;;;;;;;58.87;26.10;;;;;;;-141.97;71.60;45939.53;5150081;28;20193;-86
2023/12/22 08:47:08;;;;;;;61.17;26.73;;;;;;;-141.97;70.85;46162.38;5142391;28;20212;-86
2023/12/22 08:49:33;;;;;;;56.33;25.73;;;;;;;-141.97;70.14;46437.13;5111022;28;20649;-85
2023/12/22 08:51:59;;;;;;;57.83;29.40;;;;;;;-141.97;69.10;45974.09;5110688;28;20171;-85
2023/12/22 08:54:24;;;;;;;60.10;29.50;;;;;;;-141.97;68.60;46490.94;5127959;28;20182;-84
2023/12/22 08:56:49;;;;;;;62.67;30.10;;;;;;;-141.97;67.86;46135.50;5128355;28;20205;-83
2023/12/22 08:59:15;;;;;;;55.57;26.93;;;;;;;-141.97;67.59;46335.31;5129665;28;20190;-84
2023/12/22 09:01:43;;;;;;;52.53;25.40;;;;;;;-141.97;67.23;46504.38;5129398;28;20262;-86
2023/12/22 09:04:10;;;;;;;83.73;40.07;;;;;;;-141.97;68.48;45914.56;5128697;28;20171;-88
2023/12/22 09:06:36;;;;;;;69.83;36.67;;;;;;;-141.97;68.10;45958.75;5109436;28;20480;-85
2023/12/22 09:09:03;;;;;;;75.67;38.57;;;;;;;-141.97;67.87;46412.16;5128208;28;20409;-84
2023/12/22 09:11:29;;;;;;;67.40;35.27;;;;;;;-141.97;68.37;46450.59;5109158;28;20179;-85
2023/12/22 09:13:54;;;;;;;52.90;27.97;;;;;;;-141.97;68.77;46542.81;5108785;28;20507;-84
2023/12/22 09:16:21;;;;;;;89.93;41.60;;;;;;;-141.97;69.94;46487.09;5127448;28;20198;-85
2023/12/22 09:18:47;;;;;;;77.27;37.93;;;;;;;-141.97;69.96;46170.06;5098577;28;20217;-84
2023/12/22 09:21:12;;;;;;;86.53;38.57;;;;;;;-141.97;69.72;45966.44;5113864;28;20491;-86
2023/12/22 09:23:37;;;;;;;75.43;34.93;;;;;;;-141.97;69.59;46402.56;5114230;28;20168;-85
2023/12/22 09:26:04;;;;;;;65.47;30.90;;;;;;;-141.97;69.01;45853.06;5113833;28;20254;-86
2023/12/22 09:28:30;;;;;;;75.03;34.93;;;;;;;-141.97;69.00;46481.34;5095398;28;20167;-85
2023/12/22 09:30:55;;;;;;;169.30;65.23;;;;;;;-141.97;68.71;46485.19;5113533;28;20615;-84
2023/12/22 09:33:22;;;;;;;94.07;41.40;;;;;;;-141.97;69.17;46139.34;5113430;28;20220;-85
2023/12/22 09:35:48;;;;;;;64.73;30.63;;;;;;;-141.97;69.10;46116.28;5095244;28;20206;-86
2023/12/22 09:38:13;;;;;;;59.43;29.90;;;;;;;-141.97;69.52;45951.06;5095292;28;20486;-85
2023/12/22 09:40:39;;;;;;;55.73;25.77;;;;;;;-141.97;70.14;46358.38;5095103;28;20171;-85
2023/12/22 09:43:06;;;;;;;45.57;23.63;;;;;;;-141.97;69.68;46465.97;5113241;28;20179;-85
2023/12/22 09:45:33;;;;;;;77.53;41.10;;;;;;;-141.97;69.92;46129.72;5094965;28;20271;-85
2023/12/22 09:48:00;;;;;;;62.93;30.97;;;;;;;-141.97;69.79;46043.28;5094967;28;20405;-85
2023/12/22 09:50:30;;;;;;;65.23;27.47;;;;;;;-141.97;69.30;46081.69;5113101;28;20410;-85
2023/12/22 09:52:56;;;;;;;46.13;20.77;;;;;;;-141.97;68.80;46446.75;5113057;28;20478;-85
2023/12/22 09:55:22;;;;;;;48.73;23.63;;;;;;;-141.97;68.92;46302.66;5095826;28;20170;-86
2023/12/22 09:57:49;;;;;;;47.57;22.27;;;;;;;-141.97;68.90;45868.44;5113851;28;20449;-85
2023/12/22 10:00:15;;;;;;;48.30;22.97;;;;;;;-141.97;69.34;46123.97;5114261;28;20633;-85
2023/12/22 10:02:45;;;;;;;41.27;17.60;;;;;;;-141.97;70.10;46500.56;5096030;28;20199;-85
2023/12/22 10:05:12;;;;;;;47.20;20.33;;;;;;;-141.97;70.50;46540.91;5113803;28;20171;-85
2023/12/22 10:07:39;;;;;;;41.67;18.80;;;;;;;-141.97;70.95;46469.81;5099086;28;20223;-83
2023/12/22 10:10:06;;;;;;;44.07;20.87;;;;;;;-141.97;71.00;46129.72;5118926;28;20722;-84
2023/12/22 10:12:34;;;;;;;38.43;18.30;;;;;;;-141.97;71.33;46392.94;5095878;28;20163;-84
2023/12/22 10:15:00;;;;;;;38.83;16.63;;;;;;;-141.97;71.68;46481.34;5113349;28;20254;-86
2023/12/22 10:17:26;;;;;;;39.87;19.00;;;;;;;-141.97;72.12;46465.97;5094912;28;20571;-83
2023/12/22 10:19:52;;;;;;;38.63;18.13;;;;;;;-141.97;72.29;45910.72;5093782;28;20854;-85
2023/12/22 10:22:18;;;;;;;33.03;16.83;;;;;;;-141.97;73.56;46001.00;5112191;28;20164;-84
2023/12/22 10:24:48;;;;;;;26.70;12.43;;;;;;;-141.97;74.46;46029.81;5093849;28;20195;-85
2023/12/22 10:27:15;;;;;;;33.73;15.33;;;;;;;-141.97;76.31;46396.78;5095208;28;20247;-85
2023/12/22 10:29:40;;;;;;;45.10;20.77;;;;;;;-141.97;78.06;46050.97;5110697;28;20402;-84
2023/12/22 10:32:08;;;;;;;43.63;21.57;;;;;;;-141.97;79.12;46373.72;5093325;28;20178;-85
2023/12/22 10:34:34;;;;;;;26.37;12.80;;;;;;;-141.97;79.91;46064.41;5093658;28;20183;-85
2023/12/22 10:37:01;;;;;;;24.30;11.60;;;;;;;-141.97;81.35;46118.19;5093838;28;20198;-85
2023/12/22 10:39:31;;;;;;;26.67;13.60;;;;;;;-141.97;82.11;46060.56;5096002;28;20663;-86
2023/12/22 10:41:58;;;;;;;24.70;13.10;;;;;;;-141.97;83.30;45947.22;5112821;28;20166;-85
2023/12/22 10:44:28;;;;;;;38.27;18.20;;;;;;;-141.97;83.51;45976.03;5113641;28;20273;-85
2023/12/22 10:46:54;;;;;;;24.30;12.10;;;;;;;-141.97;83.88;46123.97;5095559;28;20175;-86
2023/12/22 10:49:20;;;;;;;34.37;17.07;;;;;;;-141.97;85.05;46002.94;5112204;28;20162;-86
2023/12/22 10:51:46;;;;;;;30.90;15.27;;;;;;;-141.97;85.51;46335.31;5093682;28;20258;-86
2023/12/22 10:54:11;;;;;;;24.03;12.73;;;;;;;-141.97;85.67;46515.91;5111676;28;20243;-85
2023/12/22 10:56:36;;;;;;;26.70;13.00;;;;;;;-141.97;85.16;46293.03;5111836;28;20191;-87
2023/12/22 10:59:03;;;;;;;33.77;16.00;;;;;;;-141.97;85.69;46112.44;5093839;28;20536;-86